sensor_id;sensor_type;location;lat;lon;timestamp;temperature;humidity
75961;SHT30;64644;48.914;2.254;2023-01-05T06:15:15;14.65;76.02
75961;SHT30;64644;48.914;2.254;2023-01-05T06:17:40;14.64;76.12
75961;SHT30;64644;48.914;2.254;2023-01-05T06:29:52;14.61;76.18
75961;SHT30;64644;48.914;2.254;2023-01-05T06:34:43;14.64;76.02
75961;SHT30;64644;48.914;2.254;2023-01-05T06:39:37;14.61;76.11
75961;SHT30;64644;48.914;2.254;2023-01-05T06:42:02;14.64;76.15
75961;SHT30;64644;48.914;2.254;2023-01-05T06:44:28;14.62;76.18
75961;SHT30;64644;48.914;2.254;2023-01-05T06:46:53;14.64;76.19
75961;SHT30;64644;48.914;2.254;2023-01-05T06:54:13;14.65;76.22
75961;SHT30;64644;48.914;2.254;2023-01-05T07:01:33;14.68;76.26
75961;SHT30;64644;48.914;2.254;2023-01-05T07:35:35;14.80;76.60
75961;SHT30;64644;48.914;2.254;2023-01-05T08:26:41;15.02;76.81
75961;SHT30;64644;48.914;2.254;2023-01-05T08:31:32;15.00;76.84
75961;SHT30;64644;48.914;2.254;2023-01-05T08:46:37;15.11;76.90
75961;SHT30;64644;48.914;2.254;2023-01-05T08:53:55;15.11;76.70
75961;SHT30;64644;48.914;2.254;2023-01-05T09:03:38;15.19;76.58
75961;SHT30;64644;48.914;2.254;2023-01-05T09:23:04;15.45;76.19
75961;SHT30;64644;48.914;2.254;2023-01-05T09:27:56;15.54;75.90
75961;SHT30;64644;48.914;2.254;2023-01-05T09:54:47;15.83;75.38
75961;SHT30;64644;48.914;2.254;2023-01-05T10:09:39;15.81;75.13
75961;SHT30;64644;48.914;2.254;2023-01-05T10:16:56;15.82;75.27
75961;SHT30;64644;48.914;2.254;2023-01-05T10:26:58;15.82;75.26
75961;SHT30;64644;48.914;2.254;2023-01-05T10:29:43;15.82;75.37
75961;SHT30;64644;48.914;2.254;2023-01-05T10:42:46;15.96;75.09
75961;SHT30;64644;48.914;2.254;2023-01-05T10:47:40;16.06;75.11
75961;SHT30;64644;48.914;2.254;2023-01-05T10:50:35;16.04;74.99
75961;SHT30;64644;48.914;2.254;2023-01-05T10:53:37;16.09;75.04
75961;SHT30;64644;48.914;2.254;2023-01-05T10:56:13;16.09;74.83
75961;SHT30;64644;48.914;2.254;2023-01-05T10:58:42;16.09;74.89
75961;SHT30;64644;48.914;2.254;2023-01-05T11:01:23;16.07;74.69
75961;SHT30;64644;48.914;2.254;2023-01-05T11:03:53;16.06;75.75
75961;SHT30;64644;48.914;2.254;2023-01-05T11:06:25;15.97;78.14
75961;SHT30;64644;48.914;2.254;2023-01-05T11:08:51;15.83;77.08
75961;SHT30;64644;48.914;2.254;2023-01-05T11:11:22;15.75;77.59
75961;SHT30;64644;48.914;2.254;2023-01-05T11:13:54;15.73;78.00
75961;SHT30;64644;48.914;2.254;2023-01-05T11:16:33;15.70;77.29
75961;SHT30;64644;48.914;2.254;2023-01-05T11:19:01;15.68;77.27
75961;SHT30;64644;48.914;2.254;2023-01-05T11:26:55;15.72;77.16
75961;SHT30;64644;48.914;2.254;2023-01-05T11:29:21;15.70;77.18
75961;SHT30;64644;48.914;2.254;2023-01-05T11:31:53;15.73;77.05
75961;SHT30;64644;48.914;2.254;2023-01-05T11:46:59;15.70;77.12
75961;SHT30;64644;48.914;2.254;2023-01-05T11:49:25;15.70;77.04
75961;SHT30;64644;48.914;2.254;2023-01-05T11:51:50;15.76;77.01
75961;SHT30;64644;48.914;2.254;2023-01-05T11:59:39;15.73;77.30
75961;SHT30;64644;48.914;2.254;2023-01-05T12:08:00;15.72;76.98
75961;SHT30;64644;48.914;2.254;2023-01-05T12:15:33;15.70;76.33
75961;SHT30;64644;48.914;2.254;2023-01-05T12:26:22;15.81;75.57
75961;SHT30;64644;48.914;2.254;2023-01-05T12:36:50;15.79;74.77
75961;SHT30;64644;48.914;2.254;2023-01-05T12:52:44;15.86;75.06
75961;SHT30;64644;48.914;2.254;2023-01-05T12:57:40;15.90;75.78
75961;SHT30;64644;48.914;2.254;2023-01-05T13:00:13;15.90;74.66
75961;SHT30;64644;48.914;2.254;2023-01-05T13:11:14;16.00;74.10
75961;SHT30;64644;48.914;2.254;2023-01-05T13:18:52;16.11;73.81
75961;SHT30;64644;48.914;2.254;2023-01-05T13:21:20;16.18;73.82
75961;SHT30;64644;48.914;2.254;2023-01-05T13:23:52;16.20;73.65
75961;SHT30;64644;48.914;2.254;2023-01-05T13:29:01;16.27;73.67
75961;SHT30;64644;48.914;2.254;2023-01-05T13:53:05;16.10;75.15
75961;SHT30;64644;48.914;2.254;2023-01-05T13:55:36;15.97;75.62
75961;SHT30;64644;48.914;2.254;2023-01-05T13:58:05;15.92;76.53
75961;SHT30;64644;48.914;2.254;2023-01-05T14:00:34;15.81;76.80
75961;SHT30;64644;48.914;2.254;2023-01-05T14:03:03;15.76;76.69
75961;SHT30;64644;48.914;2.254;2023-01-05T14:05:56;15.78;76.89
75961;SHT30;64644;48.914;2.254;2023-01-05T14:11:07;15.76;76.96
75961;SHT30;64644;48.914;2.254;2023-01-05T14:18:48;15.70;76.74
75961;SHT30;64644;48.914;2.254;2023-01-05T14:31:46;15.57;76.47
75961;SHT30;64644;48.914;2.254;2023-01-05T14:34:13;15.54;76.46
75961;SHT30;64644;48.914;2.254;2023-01-05T14:36:42;15.48;76.92
75961;SHT30;64644;48.914;2.254;2023-01-05T14:41:57;15.48;76.85
75961;SHT30;64644;48.914;2.254;2023-01-05T14:44:29;15.47;76.56
75961;SHT30;64644;48.914;2.254;2023-01-05T14:46:56;15.47;76.37
75961;SHT30;64644;48.914;2.254;2023-01-05T14:57:35;15.54;76.29
75961;SHT30;64644;48.914;2.254;2023-01-05T15:00:17;15.49;76.11
75961;SHT30;64644;48.914;2.254;2023-01-05T15:03:04;15.48;75.94
75961;SHT30;64644;48.914;2.254;2023-01-05T15:05:33;15.44;76.20
75961;SHT30;64644;48.914;2.254;2023-01-05T15:08:25;15.47;76.13
75961;SHT30;64644;48.914;2.254;2023-01-05T15:23:13;15.51;75.74
75961;SHT30;64644;48.914;2.254;2023-01-05T15:30:42;15.51;74.90
75961;SHT30;64644;48.914;2.254;2023-01-05T15:33:44;15.47;74.57
75961;SHT30;64644;48.914;2.254;2023-01-05T15:38:45;15.48;74.64
75961;SHT30;64644;48.914;2.254;2023-01-05T15:41:13;15.49;74.21
75961;SHT30;64644;48.914;2.254;2023-01-05T15:43:40;15.42;72.33
75961;SHT30;64644;48.914;2.254;2023-01-05T15:46:07;15.40;73.78
75961;SHT30;64644;48.914;2.254;2023-01-05T15:48:59;15.38;73.16
75961;SHT30;64644;48.914;2.254;2023-01-05T15:51:28;15.37;73.90
75961;SHT30;64644;48.914;2.254;2023-01-05T15:58:52;15.24;73.99
75961;SHT30;64644;48.914;2.254;2023-01-05T16:01:18;15.16;74.12
75961;SHT30;64644;48.914;2.254;2023-01-05T16:03:45;15.06;74.11
75961;SHT30;64644;48.914;2.254;2023-01-05T16:06:23;14.97;74.37
75961;SHT30;64644;48.914;2.254;2023-01-05T16:08:51;14.90;74.49
75961;SHT30;64644;48.914;2.254;2023-01-05T16:16:25;14.69;75.42
75961;SHT30;64644;48.914;2.254;2023-01-05T16:18:59;14.68;75.84
75961;SHT30;64644;48.914;2.254;2023-01-05T16:21:31;14.62;76.12
75961;SHT30;64644;48.914;2.254;2023-01-05T16:24:16;14.49;80.99
75961;SHT30;64644;48.914;2.254;2023-01-05T16:29:33;14.26;78.31
75961;SHT30;64644;48.914;2.254;2023-01-05T16:31:58;14.18;78.40
75961;SHT30;64644;48.914;2.254;2023-01-05T16:34:24;14.13;78.93
75961;SHT30;64644;48.914;2.254;2023-01-05T16:37:15;14.13;78.19
75961;SHT30;64644;48.914;2.254;2023-01-05T16:39:42;14.14;78.15
75961;SHT30;64644;48.914;2.254;2023-01-05T16:42:20;14.14;78.09
75961;SHT30;64644;48.914;2.254;2023-01-05T16:45:21;14.14;77.95
75961;SHT30;64644;48.914;2.254;2023-01-05T16:47:47;14.18;78.01
75961;SHT30;64644;48.914;2.254;2023-01-05T16:52:56;14.09;77.92
75961;SHT30;64644;48.914;2.254;2023-01-05T16:55:28;14.12;77.86
75961;SHT30;64644;48.914;2.254;2023-01-05T16:57:55;14.10;77.42
75961;SHT30;64644;48.914;2.254;2023-01-05T17:00:40;14.13;77.73
75961;SHT30;64644;48.914;2.254;2023-01-05T17:03:28;14.10;77.95
75961;SHT30;64644;48.914;2.254;2023-01-05T17:05:55;14.09;77.89
75961;SHT30;64644;48.914;2.254;2023-01-05T17:08:23;14.06;78.10
75961;SHT30;64644;48.914;2.254;2023-01-05T17:13:20;13.98;78.48
75961;SHT30;64644;48.914;2.254;2023-01-05T17:15:48;13.93;78.57
75961;SHT30;64644;48.914;2.254;2023-01-05T17:20:44;13.96;78.26
75961;SHT30;64644;48.914;2.254;2023-01-05T17:23:31;13.98;77.99
75961;SHT30;64644;48.914;2.254;2023-01-05T17:26:01;13.95;78.04
75961;SHT30;64644;48.914;2.254;2023-01-05T17:30:56;13.92;77.89
75961;SHT30;64644;48.914;2.254;2023-01-05T17:33:21;13.92;77.75
75961;SHT30;64644;48.914;2.254;2023-01-05T17:35:47;13.90;77.75
75961;SHT30;64644;48.914;2.254;2023-01-05T17:38:13;13.92;77.45
75961;SHT30;64644;48.914;2.254;2023-01-05T17:40:39;13.90;77.53
75961;SHT30;64644;48.914;2.254;2023-01-05T17:43:05;13.90;77.36
75961;SHT30;64644;48.914;2.254;2023-01-05T17:45:31;13.83;77.33
75961;SHT30;64644;48.914;2.254;2023-01-05T17:47:59;13.83;77.44
75961;SHT30;64644;48.914;2.254;2023-01-05T17:50:29;13.83;77.42
75961;SHT30;64644;48.914;2.254;2023-01-05T17:53:00;13.81;77.48
75961;SHT30;64644;48.914;2.254;2023-01-05T17:55:26;13.82;77.29
75961;SHT30;64644;48.914;2.254;2023-01-05T17:57:56;13.85;77.09
75961;SHT30;64644;48.914;2.254;2023-01-05T18:00:24;13.85;77.11
75961;SHT30;64644;48.914;2.254;2023-01-05T18:05:16;13.83;76.98
75961;SHT30;64644;48.914;2.254;2023-01-05T18:07:42;13.83;76.93
75961;SHT30;64644;48.914;2.254;2023-01-05T18:10:29;13.83;76.75
75961;SHT30;64644;48.914;2.254;2023-01-05T18:13:25;13.86;76.75
75961;SHT30;64644;48.914;2.254;2023-01-05T18:16:08;13.86;76.68
75961;SHT30;64644;48.914;2.254;2023-01-05T18:18:57;13.89;76.37
75961;SHT30;64644;48.914;2.254;2023-01-05T18:21:35;13.89;75.72
75961;SHT30;64644;48.914;2.254;2023-01-05T18:24:01;13.87;75.62
75961;SHT30;64644;48.914;2.254;2023-01-05T18:26:51;13.87;75.74
75961;SHT30;64644;48.914;2.254;2023-01-05T18:29:47;13.86;75.68
75961;SHT30;64644;48.914;2.254;2023-01-05T18:32:20;13.86;75.14
75961;SHT30;64644;48.914;2.254;2023-01-05T18:34:46;13.87;75.26
75961;SHT30;64644;48.914;2.254;2023-01-05T18:37:15;13.89;74.86
75961;SHT30;64644;48.914;2.254;2023-01-05T18:39:42;13.89;74.56
75961;SHT30;64644;48.914;2.254;2023-01-05T18:42:29;13.87;74.40
75961;SHT30;64644;48.914;2.254;2023-01-05T18:44:55;13.87;74.08
75961;SHT30;64644;48.914;2.254;2023-01-05T18:47:20;13.89;74.20
75961;SHT30;64644;48.914;2.254;2023-01-05T18:49:45;13.90;73.72
75961;SHT30;64644;48.914;2.254;2023-01-05T18:52:11;13.92;73.68
75961;SHT30;64644;48.914;2.254;2023-01-05T18:54:36;13.93;73.71
75961;SHT30;64644;48.914;2.254;2023-01-05T18:57:02;13.93;73.35
75961;SHT30;64644;48.914;2.254;2023-01-05T18:59:28;13.98;73.40
75961;SHT30;64644;48.914;2.254;2023-01-05T19:01:54;13.96;73.18
75961;SHT30;64644;48.914;2.254;2023-01-05T19:04:21;13.98;72.61
75961;SHT30;64644;48.914;2.254;2023-01-05T19:06:57;14.00;72.52
75961;SHT30;64644;48.914;2.254;2023-01-05T19:09:24;14.02;72.48
75961;SHT30;64644;48.914;2.254;2023-01-05T19:11:50;14.02;70.75
75961;SHT30;64644;48.914;2.254;2023-01-05T19:14:20;14.03;70.86
75961;SHT30;64644;48.914;2.254;2023-01-05T19:16:48;14.03;71.71
75961;SHT30;64644;48.914;2.254;2023-01-05T19:19:14;14.06;71.19
75961;SHT30;64644;48.914;2.254;2023-01-05T19:21:43;14.09;70.87
75961;SHT30;64644;48.914;2.254;2023-01-05T19:24:16;14.10;70.18
75961;SHT30;64644;48.914;2.254;2023-01-05T19:26:42;14.09;70.27
75961;SHT30;64644;48.914;2.254;2023-01-05T19:29:10;14.09;69.80
75961;SHT30;64644;48.914;2.254;2023-01-05T19:34:05;14.07;69.83
75961;SHT30;64644;48.914;2.254;2023-01-05T19:36:33;14.10;70.04
75961;SHT30;64644;48.914;2.254;2023-01-05T19:39:01;14.10;69.93
75961;SHT30;64644;48.914;2.254;2023-01-05T19:41:27;14.10;69.59
75961;SHT30;64644;48.914;2.254;2023-01-05T19:43:54;14.09;69.82
75961;SHT30;64644;48.914;2.254;2023-01-05T19:46:21;14.07;69.22
75961;SHT30;64644;48.914;2.254;2023-01-05T19:48:48;14.10;69.48
75961;SHT30;64644;48.914;2.254;2023-01-05T19:51:16;14.09;69.67
75961;SHT30;64644;48.914;2.254;2023-01-05T19:53:42;14.10;68.77
75961;SHT30;64644;48.914;2.254;2023-01-05T19:56:12;14.09;69.18
75961;SHT30;64644;48.914;2.254;2023-01-05T19:58:38;14.09;69.76
75961;SHT30;64644;48.914;2.254;2023-01-05T20:01:08;14.10;68.94
75961;SHT30;64644;48.914;2.254;2023-01-05T20:03:34;14.07;68.82
75961;SHT30;64644;48.914;2.254;2023-01-05T20:06:05;14.09;68.82
75961;SHT30;64644;48.914;2.254;2023-01-05T20:08:31;14.10;68.88
75961;SHT30;64644;48.914;2.254;2023-01-05T20:10:57;14.09;68.53
75961;SHT30;64644;48.914;2.254;2023-01-05T20:13:22;14.09;68.89
75961;SHT30;64644;48.914;2.254;2023-01-05T20:18:13;14.10;67.78
75961;SHT30;64644;48.914;2.254;2023-01-05T20:20:39;14.07;68.22
75961;SHT30;64644;48.914;2.254;2023-01-05T20:23:04;14.10;68.26
75961;SHT30;64644;48.914;2.254;2023-01-05T20:25:29;14.07;68.20
75961;SHT30;64644;48.914;2.254;2023-01-05T20:27:55;14.07;68.40
75961;SHT30;64644;48.914;2.254;2023-01-05T20:35:15;14.07;67.06
75961;SHT30;64644;48.914;2.254;2023-01-05T20:37:40;14.07;67.50
75961;SHT30;64644;48.914;2.254;2023-01-05T20:40:06;14.06;67.54
75961;SHT30;64644;48.914;2.254;2023-01-05T20:42:32;14.06;66.96
75961;SHT30;64644;48.914;2.254;2023-01-05T20:44:59;14.06;67.11
75961;SHT30;64644;48.914;2.254;2023-01-05T20:47:29;14.06;67.39
75961;SHT30;64644;48.914;2.254;2023-01-05T20:49:54;14.06;67.50
75961;SHT30;64644;48.914;2.254;2023-01-05T20:52:19;14.07;67.26
75961;SHT30;64644;48.914;2.254;2023-01-05T20:54:45;14.05;67.10
75961;SHT30;64644;48.914;2.254;2023-01-05T20:57:11;14.05;67.02
75961;SHT30;64644;48.914;2.254;2023-01-05T20:59:37;14.07;67.13
75961;SHT30;64644;48.914;2.254;2023-01-05T21:02:06;14.07;65.64
75961;SHT30;64644;48.914;2.254;2023-01-05T21:04:31;14.05;65.83
75961;SHT30;64644;48.914;2.254;2023-01-05T21:06:57;14.03;66.53
75961;SHT30;64644;48.914;2.254;2023-01-05T21:09:25;14.06;66.10
75961;SHT30;64644;48.914;2.254;2023-01-05T21:11:52;14.02;66.79
75961;SHT30;64644;48.914;2.254;2023-01-05T21:14:17;14.05;66.52
75961;SHT30;64644;48.914;2.254;2023-01-05T21:16:48;14.06;66.63
75961;SHT30;64644;48.914;2.254;2023-01-05T21:19:16;14.07;67.12
75961;SHT30;64644;48.914;2.254;2023-01-05T21:24:09;14.06;66.90
75961;SHT30;64644;48.914;2.254;2023-01-05T21:29:04;14.09;67.05
75961;SHT30;64644;48.914;2.254;2023-01-05T21:31:31;14.06;67.54
75961;SHT30;64644;48.914;2.254;2023-01-05T21:33:57;14.07;67.90
75961;SHT30;64644;48.914;2.254;2023-01-05T21:36:25;14.07;67.64
75961;SHT30;64644;48.914;2.254;2023-01-05T21:38:53;14.07;68.10
75961;SHT30;64644;48.914;2.254;2023-01-05T21:41:19;14.10;68.42
75961;SHT30;64644;48.914;2.254;2023-01-05T21:44:05;14.10;68.66
75961;SHT30;64644;48.914;2.254;2023-01-05T21:46:32;14.07;68.91
75961;SHT30;64644;48.914;2.254;2023-01-05T21:48:57;14.03;69.19
75961;SHT30;64644;48.914;2.254;2023-01-05T21:51:23;14.06;69.34
75961;SHT30;64644;48.914;2.254;2023-01-05T21:54:07;14.03;69.56
75961;SHT30;64644;48.914;2.254;2023-01-05T21:56:53;14.06;69.76
75961;SHT30;64644;48.914;2.254;2023-01-05T21:59:21;14.09;69.88
75961;SHT30;64644;48.914;2.254;2023-01-05T22:01:46;14.06;70.11
75961;SHT30;64644;48.914;2.254;2023-01-05T22:06:37;14.06;70.59
75961;SHT30;64644;48.914;2.254;2023-01-05T22:09:05;14.06;70.54
75961;SHT30;64644;48.914;2.254;2023-01-05T22:11:30;14.02;70.70
75961;SHT30;64644;48.914;2.254;2023-01-05T22:13:56;14.02;70.90
75961;SHT30;64644;48.914;2.254;2023-01-05T22:16:21;13.98;71.12
75961;SHT30;64644;48.914;2.254;2023-01-05T22:18:46;13.96;71.15
75961;SHT30;64644;48.914;2.254;2023-01-05T22:21:12;13.92;71.24
75961;SHT30;64644;48.914;2.254;2023-01-05T22:23:39;13.89;71.53
75961;SHT30;64644;48.914;2.254;2023-01-05T22:26:07;13.85;71.63
75961;SHT30;64644;48.914;2.254;2023-01-05T22:28:35;13.82;71.67
75961;SHT30;64644;48.914;2.254;2023-01-05T22:31:09;13.81;71.85
75961;SHT30;64644;48.914;2.254;2023-01-05T22:33:37;13.81;71.98
75961;SHT30;64644;48.914;2.254;2023-01-05T22:36:22;13.81;72.01
75961;SHT30;64644;48.914;2.254;2023-01-05T22:38:50;13.78;72.05
75961;SHT30;64644;48.914;2.254;2023-01-05T22:43:44;13.75;72.05
75961;SHT30;64644;48.914;2.254;2023-01-05T22:46:15;13.75;72.01
75961;SHT30;64644;48.914;2.254;2023-01-05T22:49:02;13.73;72.06
75961;SHT30;64644;48.914;2.254;2023-01-05T22:51:32;13.75;71.94
75961;SHT30;64644;48.914;2.254;2023-01-05T22:53:59;13.76;71.87
75961;SHT30;64644;48.914;2.254;2023-01-05T22:56:26;13.75;71.69
75961;SHT30;64644;48.914;2.254;2023-01-05T22:58:53;13.73;71.74
75961;SHT30;64644;48.914;2.254;2023-01-05T23:01:23;13.75;71.78
75961;SHT30;64644;48.914;2.254;2023-01-05T23:03:50;13.73;71.39
75961;SHT30;64644;48.914;2.254;2023-01-05T23:06:17;13.71;71.46
75961;SHT30;64644;48.914;2.254;2023-01-05T23:08:43;13.68;71.52
75961;SHT30;64644;48.914;2.254;2023-01-05T23:11:11;13.71;71.42
75961;SHT30;64644;48.914;2.254;2023-01-05T23:13:38;13.68;71.11
75961;SHT30;64644;48.914;2.254;2023-01-05T23:16:04;13.68;71.14
75961;SHT30;64644;48.914;2.254;2023-01-05T23:18:30;13.65;71.20
75961;SHT30;64644;48.914;2.254;2023-01-05T23:21:02;13.62;71.19
75961;SHT30;64644;48.914;2.254;2023-01-05T23:23:28;13.64;71.25
75961;SHT30;64644;48.914;2.254;2023-01-05T23:25:53;13.64;71.46
75961;SHT30;64644;48.914;2.254;2023-01-05T23:28:21;13.65;71.17
75961;SHT30;64644;48.914;2.254;2023-01-05T23:30:50;13.65;71.15
75961;SHT30;64644;48.914;2.254;2023-01-05T23:33:17;13.65;70.70
75961;SHT30;64644;48.914;2.254;2023-01-05T23:35:43;13.62;70.88
75961;SHT30;64644;48.914;2.254;2023-01-05T23:38:09;13.61;70.80
75961;SHT30;64644;48.914;2.254;2023-01-05T23:40:48;13.58;70.84
75961;SHT30;64644;48.914;2.254;2023-01-05T23:43:15;13.57;70.71
75961;SHT30;64644;48.914;2.254;2023-01-05T23:45:42;13.57;70.91
75961;SHT30;64644;48.914;2.254;2023-01-05T23:48:08;13.55;70.93
75961;SHT30;64644;48.914;2.254;2023-01-05T23:50:34;13.53;70.67
75961;SHT30;64644;48.914;2.254;2023-01-05T23:53:01;13.53;70.92
75961;SHT30;64644;48.914;2.254;2023-01-05T23:55:27;13.53;71.05
